createdAt,value
2018-08-12T00:01:29.030Z,99556.33
2018-08-12T00:03:57.386Z,99556.33
2018-08-12T00:06:26.280Z,99553.10
2018-08-12T00:08:55.053Z,99556.29
2018-08-12T00:11:23.859Z,99503.56
2018-08-12T00:13:52.744Z,99549.27
2018-08-12T00:16:21.470Z,99547.59
2018-08-12T00:18:49.928Z,99546.16
2018-08-12T00:21:18.492Z,99548.07
2018-08-12T00:23:46.828Z,99552.39
2018-08-12T00:26:15.150Z,99551.88
2018-08-12T00:28:43.951Z,99548.45
2018-08-12T00:31:13.132Z,99545.38
2018-08-12T00:33:41.613Z,99538.20
2018-08-12T00:36:10.589Z,99536.25
2018-08-12T00:38:38.896Z,99535.75
2018-08-12T00:41:07.379Z,99526.81
2018-08-12T00:43:36.333Z,99534.96
2018-08-12T00:46:04.807Z,99528.72
2018-08-12T00:48:33.300Z,99530.98
2018-08-12T00:51:01.787Z,99529.85
2018-08-12T00:53:30.481Z,99534.30
2018-08-12T00:55:59.007Z,99522.95
2018-08-12T00:58:27.829Z,99526.27
2018-08-12T01:00:56.626Z,99519.36
2018-08-12T01:03:25.188Z,99481.95
2018-08-12T01:05:54.025Z,99515.47
2018-08-12T01:08:22.253Z,99520.81
2018-08-12T01:10:50.798Z,99517.89
2018-08-12T01:13:19.622Z,99516.83
2018-08-12T01:15:48.238Z,99522.95
2018-08-12T01:18:16.571Z,99516.05
2018-08-12T01:20:45.264Z,99516.94
2018-08-12T01:23:13.743Z,99515.92
2018-08-12T01:25:42.267Z,99513.47
2018-08-12T01:28:10.941Z,99511.69
2018-08-12T01:30:39.957Z,99514.98
2018-08-12T01:33:08.265Z,99446.14
2018-08-12T01:35:37.601Z,99509.16
2018-08-12T01:38:06.630Z,99513.22
2018-08-12T01:40:34.937Z,99516.14
2018-08-12T01:43:03.521Z,99509.09
2018-08-12T01:45:32.525Z,99514.19
2018-08-12T01:48:00.872Z,99512.67
2018-08-12T01:50:29.312Z,99508.75
2018-08-12T01:52:58.199Z,99503.48
2018-08-12T01:55:26.677Z,99503.19
2018-08-12T01:57:55.365Z,99496.75
2018-08-12T02:00:24.246Z,99500.17
2018-08-12T02:02:52.662Z,99492.48
2018-08-12T02:05:21.113Z,99486.36
2018-08-12T02:07:49.941Z,99486.08
2018-08-12T02:10:18.180Z,99484.41
2018-08-12T02:12:46.689Z,99483.01
2018-08-12T02:15:15.140Z,99489.50
2018-08-12T02:17:43.738Z,99480.04
2018-08-12T02:20:12.500Z,99479.02
2018-08-12T02:22:41.581Z,99486.11
2018-08-12T02:25:10.625Z,99484.53
2018-08-12T02:27:38.800Z,99493.78
2018-08-12T02:30:09.522Z,99482.70
2018-08-12T02:32:37.682Z,99501.66
2018-08-12T02:35:06.267Z,99489.02
2018-08-12T02:37:35.189Z,99484.17
2018-08-12T02:40:05.305Z,99485.30
2018-08-12T02:42:33.878Z,99487.19
2018-08-12T02:45:02.906Z,99486.69
2018-08-12T02:47:31.347Z,99479.78
2018-08-12T02:49:59.778Z,99478.34
2018-08-12T02:52:28.832Z,99479.92
2018-08-12T02:54:57.303Z,99459.77
2018-08-12T02:57:25.770Z,99481.93
2018-08-12T02:59:55.439Z,99470.97
2018-08-12T03:02:24.538Z,99476.97
2018-08-12T03:04:54.278Z,99484.77
2018-08-12T03:07:23.807Z,99472.30
2018-08-12T03:09:52.226Z,99464.08
2018-08-12T03:12:20.863Z,99470.69
2018-08-12T03:14:49.501Z,99456.32
2018-08-12T03:17:17.939Z,99469.11
2018-08-12T03:19:46.285Z,99459.02
2018-08-12T03:22:15.096Z,99420.73
2018-08-12T03:24:43.193Z,99449.72
2018-08-12T03:27:11.373Z,99446.10
2018-08-12T03:29:40.009Z,99450.30
2018-08-12T03:32:08.419Z,99369.45
2018-08-12T03:34:37.189Z,99455.75
2018-08-12T03:37:06.626Z,99455.91
2018-08-12T03:39:34.703Z,99449.70
2018-08-12T03:42:03.549Z,99440.58
2018-08-12T03:44:32.293Z,99442.72
2018-08-12T03:47:00.454Z,99441.75
2018-08-12T03:49:29.100Z,99442.14
2018-08-12T03:51:57.983Z,99417.77
2018-08-12T03:54:26.725Z,99438.47
2018-08-12T03:56:54.930Z,99435.61
2018-08-12T03:59:23.956Z,99431.88
2018-08-12T04:01:52.382Z,99431.69
2018-08-12T04:04:20.791Z,99427.34
2018-08-12T04:06:49.689Z,99416.48
2018-08-12T04:09:17.945Z,99426.30
2018-08-12T04:11:46.209Z,99432.16
2018-08-12T04:14:15.269Z,99432.61
2018-08-12T04:16:51.286Z,99424.98
2018-08-12T04:19:19.645Z,99425.57
2018-08-12T04:21:47.824Z,99428.52
2018-08-12T04:24:15.972Z,99426.77
2018-08-12T04:26:44.977Z,99447.23
2018-08-12T04:29:14.636Z,99430.86
2018-08-12T04:31:43.335Z,99433.16
2018-08-12T04:34:11.962Z,99425.69
2018-08-12T04:36:40.459Z,99406.77
2018-08-12T04:39:11.772Z,99423.80
2018-08-12T04:41:41.153Z,99423.33
2018-08-12T04:44:09.745Z,99422.73
2018-08-12T04:46:38.580Z,99416.27
2018-08-12T04:49:08.169Z,99386.84
2018-08-12T04:51:36.770Z,99414.63
2018-08-12T04:54:05.888Z,99412.17
2018-08-12T04:56:34.309Z,99410.98
2018-08-12T04:59:03.569Z,99431.66
2018-08-12T05:01:31.989Z,99375.14
2018-08-12T05:04:00.541Z,99411.03
2018-08-12T05:06:28.959Z,99407.80
2018-08-12T05:08:57.804Z,99411.16
2018-08-12T05:11:28.062Z,99401.97
2018-08-12T05:14:00.794Z,99402.55
2018-08-12T05:16:31.292Z,99395.50
2018-08-12T05:18:59.831Z,99396.88
2018-08-12T05:21:28.337Z,99381.38
2018-08-12T05:23:56.921Z,99393.67
2018-08-12T05:26:25.551Z,99396.95
2018-08-12T05:28:54.096Z,99387.06
2018-08-12T05:31:22.773Z,99396.36
2018-08-12T05:33:51.280Z,99383.03
2018-08-12T05:36:19.986Z,99397.25
2018-08-12T05:38:48.758Z,99391.96
2018-08-12T05:41:17.263Z,99387.73
2018-08-12T05:43:45.695Z,99379.84
2018-08-12T05:46:13.812Z,99364.86
2018-08-12T05:48:42.431Z,99378.67
2018-08-12T05:51:10.765Z,99375.94
2018-08-12T05:53:39.627Z,99372.66
2018-08-12T05:56:08.529Z,99331.08
2018-08-12T05:58:37.161Z,99357.62
2018-08-12T06:01:05.655Z,99356.66
2018-08-12T06:03:34.191Z,99352.13
2018-08-12T06:06:02.998Z,99349.64
2018-08-12T06:08:31.454Z,99357.30
2018-08-12T06:10:59.716Z,99352.91
2018-08-12T06:13:28.006Z,99351.56
2018-08-12T06:15:57.191Z,99353.62
2018-08-12T06:18:25.834Z,99351.26
2018-08-12T06:20:54.668Z,99351.67
2018-08-12T06:23:23.216Z,99333.03
2018-08-12T06:25:51.461Z,99350.41
2018-08-12T06:28:20.032Z,99347.38
2018-08-12T06:30:49.201Z,99349.16
2018-08-12T06:33:17.702Z,99352.22
2018-08-12T06:35:46.176Z,99349.70
2018-08-12T06:38:14.917Z,99326.98
2018-08-12T06:40:43.014Z,99341.67
2018-08-12T06:43:11.708Z,99341.41
2018-08-12T06:45:40.641Z,99341.41
2018-08-12T06:48:08.873Z,99338.36
2018-08-12T06:50:37.917Z,99305.05
2018-08-12T06:53:06.678Z,99337.84
2018-08-12T06:55:34.835Z,99340.64
2018-08-12T06:58:03.174Z,99343.05
2018-08-12T07:00:32.371Z,99339.81
2018-08-12T07:03:00.577Z,99339.92
2018-08-12T07:05:29.014Z,99334.36
2018-08-12T07:07:58.320Z,99325.33
2018-08-12T07:10:26.564Z,99336.02
2018-08-12T07:12:54.933Z,99331.16
2018-08-12T07:15:24.899Z,99333.50
2018-08-12T07:17:53.100Z,99325.05
2018-08-12T07:20:21.303Z,99314.98
2018-08-12T07:22:52.528Z,99333.77
2018-08-12T07:25:21.383Z,99316.89
2018-08-12T07:27:50.258Z,99299.87
2018-08-12T07:30:18.904Z,99315.98
2018-08-12T07:32:47.685Z,99319.24
2018-08-12T07:35:16.127Z,99313.66
2018-08-12T07:37:45.163Z,99280.14
2018-08-12T07:40:19.191Z,99315.87
2018-08-12T07:42:58.975Z,99308.14
2018-08-12T07:45:27.513Z,99272.99
2018-08-12T07:47:59.105Z,99289.63
2018-08-12T07:50:28.178Z,99318.30
2018-08-12T07:53:01.041Z,99290.28
2018-08-12T07:55:30.050Z,99301.09
2018-08-12T07:58:14.876Z,99309.35
2018-08-12T08:00:45.448Z,99284.89
2018-08-12T08:03:13.971Z,99293.11
2018-08-12T08:05:42.671Z,99295.95
2018-08-12T08:08:20.346Z,99131.66
2018-08-12T08:10:57.960Z,99252.31
2018-08-12T08:13:49.994Z,99279.63
2018-08-12T08:16:22.242Z,99285.30
2018-08-12T08:19:00.755Z,99288.38
2018-08-12T08:21:35.074Z,99283.26
2018-08-12T08:24:04.044Z,99265.71
2018-08-12T08:26:34.448Z,99260.41
2018-08-12T08:29:06.737Z,99249.30
2018-08-12T08:31:35.762Z,99270.37
2018-08-12T08:34:09.327Z,99270.91
2018-08-12T08:36:37.557Z,99267.06
2018-08-12T08:39:09.599Z,99286.33
2018-08-12T08:41:37.718Z,99254.30
2018-08-12T08:44:06.218Z,99262.16
2018-08-12T08:46:34.893Z,99261.33
2018-08-12T08:49:03.274Z,99245.97
2018-08-12T08:51:33.355Z,99246.41
2018-08-12T08:54:02.169Z,99242.56
2018-08-12T08:56:30.918Z,99244.92
2018-08-12T08:58:59.105Z,99238.60
2018-08-12T09:01:27.861Z,99233.84
2018-08-12T09:03:56.597Z,99222.00
2018-08-12T09:06:25.298Z,99233.91
2018-08-12T09:08:54.691Z,99232.02
2018-08-12T09:11:23.077Z,99229.13
2018-08-12T09:13:52.615Z,99229.97
2018-08-12T09:16:21.234Z,99234.57
2018-08-12T09:18:49.403Z,99232.23
2018-08-12T09:21:17.579Z,99242.14
2018-08-12T09:23:46.974Z,99228.06
2018-08-12T09:26:16.509Z,99208.61
2018-08-12T09:28:47.769Z,99226.50
2018-08-12T09:31:17.206Z,99223.19
2018-08-12T09:33:45.654Z,99193.25
2018-08-12T09:36:13.968Z,99226.28
2018-08-12T09:38:44.101Z,99201.02
2018-08-12T09:41:13.693Z,99225.55
2018-08-12T09:43:42.269Z,99219.33
2018-08-12T09:46:11.660Z,99214.09
2018-08-12T09:48:40.622Z,99173.47
2018-08-12T09:51:09.144Z,99214.68
2018-08-12T09:53:40.840Z,99177.97
2018-08-12T09:56:09.296Z,99209.80
2018-08-12T09:58:37.432Z,99204.14
2018-08-12T10:01:06.201Z,99191.11
2018-08-12T10:03:38.998Z,99194.52
2018-08-12T10:06:07.198Z,99186.53
2018-08-12T10:08:35.291Z,99185.11
2018-08-12T10:11:03.827Z,99182.83
2018-08-12T10:13:32.652Z,99175.84
2018-08-12T10:16:01.094Z,99171.98
2018-08-12T10:18:29.837Z,99167.44
2018-08-12T10:20:58.613Z,99140.59
2018-08-12T10:23:31.929Z,99156.94
2018-08-12T10:26:00.235Z,99155.00
2018-08-12T10:28:28.805Z,99145.61
2018-08-12T10:30:57.347Z,99126.70
2018-08-12T10:33:26.510Z,99141.55
2018-08-12T10:35:55.903Z,99139.92
2018-08-12T10:38:24.377Z,99131.92
2018-08-12T10:40:54.486Z,99130.83
2018-08-12T10:43:23.227Z,99127.50
2018-08-12T10:45:52.622Z,99125.45
2018-08-12T10:48:20.851Z,99123.77
2018-08-12T10:50:49.326Z,99118.64
2018-08-12T10:53:18.235Z,99116.65
2018-08-12T10:55:47.084Z,99142.06
2018-08-12T10:58:16.879Z,99093.84
2018-08-12T11:00:45.716Z,99098.00
2018-08-12T11:03:14.741Z,99082.83
2018-08-12T11:05:45.745Z,99098.59
2018-08-12T11:08:15.026Z,99090.75
2018-08-12T11:10:44.224Z,99077.98
2018-08-12T11:13:13.120Z,99088.80
2018-08-12T11:15:41.318Z,99067.62
2018-08-12T11:18:09.910Z,99082.73
2018-08-12T11:20:40.291Z,99075.72
2018-08-12T11:23:08.970Z,99029.48
2018-08-12T11:25:38.749Z,99076.16
2018-08-12T11:28:06.979Z,99079.86
2018-08-12T11:30:35.533Z,99075.84
2018-08-12T11:33:04.497Z,99063.77
2018-08-12T11:35:32.855Z,99072.06
2018-08-12T11:38:01.280Z,99058.52
2018-08-12T11:40:31.244Z,99061.82
2018-08-12T11:42:59.905Z,99050.97
2018-08-12T11:45:29.616Z,99054.78
2018-08-12T11:47:58.847Z,99046.44
2018-08-12T11:50:28.154Z,99039.78
2018-08-12T11:52:56.604Z,99034.44
2018-08-12T11:55:26.419Z,99030.41
2018-08-12T11:57:54.738Z,99041.81
2018-08-12T12:00:23.975Z,99031.23
2018-08-12T12:02:53.689Z,99031.62
2018-08-12T12:05:22.607Z,99027.67
2018-08-12T12:07:51.175Z,99027.53
2018-08-12T12:10:22.900Z,99026.48
2018-08-12T12:12:53.072Z,99031.63
2018-08-12T12:15:22.603Z,99034.19
2018-08-12T12:17:51.475Z,99024.07
2018-08-12T12:20:23.089Z,99020.45
2018-08-12T12:22:51.806Z,99019.09
2018-08-12T12:25:22.953Z,99008.80
2018-08-12T12:27:51.944Z,99004.55
2018-08-12T12:30:22.589Z,99002.86
2018-08-12T12:32:52.471Z,99003.69
2018-08-12T12:35:20.839Z,98972.94
2018-08-12T12:37:49.536Z,98989.94
2018-08-12T12:40:19.152Z,98989.22
2018-08-12T12:42:48.888Z,98979.60
2018-08-12T12:45:17.360Z,98919.19
2018-08-12T12:47:45.898Z,98979.94
2018-08-12T12:50:19.418Z,98872.89
2018-08-12T12:52:49.302Z,98974.05
2018-08-12T12:55:18.117Z,98974.50
2018-08-12T12:57:46.494Z,98973.25
2018-08-12T13:00:16.542Z,98962.17
2018-08-12T13:02:45.358Z,98965.21
2018-08-12T13:05:16.861Z,98962.80
2018-08-12T13:07:46.349Z,98959.36
2018-08-12T13:10:15.583Z,98940.02
2018-08-12T13:12:44.956Z,98955.40
2018-08-12T13:15:14.037Z,98944.80
2018-08-12T13:17:42.840Z,98946.77
2018-08-12T13:20:15.632Z,98954.85
2018-08-12T13:22:45.163Z,98893.94
2018-08-12T13:25:15.973Z,98939.27
2018-08-12T13:27:45.305Z,98932.89
2018-08-12T13:30:14.781Z,98931.61
2018-08-12T13:32:44.878Z,98923.06
2018-08-12T13:35:15.329Z,98936.74
2018-08-12T13:37:46.491Z,98901.38
2018-08-12T13:40:18.072Z,98926.13
2018-08-12T13:42:47.085Z,98925.67
2018-08-12T13:45:15.888Z,98921.16
2018-08-12T13:47:45.346Z,98908.42
2018-08-12T13:50:17.759Z,98915.56
2018-08-12T13:52:49.757Z,98903.74
2018-08-12T13:55:20.632Z,98900.80
2018-08-12T13:57:50.163Z,98897.64
2018-08-12T14:00:29.361Z,98896.40
2018-08-12T14:02:58.537Z,98891.88
2018-08-12T14:05:28.416Z,98887.16
2018-08-12T14:07:56.749Z,98877.73
2018-08-12T14:10:26.583Z,98868.54
2018-08-12T14:12:55.546Z,98873.91
2018-08-12T14:15:24.176Z,98864.80
2018-08-12T14:17:53.308Z,98863.91
2018-08-12T14:20:22.113Z,98839.55
2018-08-12T14:22:50.913Z,98849.52
2018-08-12T14:25:20.820Z,98850.23
2018-08-12T14:27:50.439Z,98847.90
2018-08-12T14:30:20.536Z,98853.98
2018-08-12T14:32:50.644Z,98817.09
2018-08-12T14:35:20.492Z,98843.33
2018-08-12T14:37:50.551Z,98838.09
2018-08-12T14:40:25.791Z,98796.15
2018-08-12T14:42:56.585Z,98816.42
2018-08-12T14:45:26.484Z,98834.97
2018-08-12T14:47:59.337Z,98828.65
2018-08-12T14:50:29.311Z,98832.34
2018-08-12T14:53:00.429Z,98823.89
2018-08-12T14:55:33.928Z,98815.25
2018-08-12T14:58:04.539Z,98824.56
2018-08-12T15:00:33.359Z,98820.73
2018-08-12T15:03:04.460Z,98809.84
2018-08-12T15:05:36.408Z,98798.92
2018-08-12T15:08:05.588Z,98776.25
2018-08-12T15:10:34.712Z,98798.61
2018-08-12T15:13:03.645Z,98793.92
2018-08-12T15:15:32.616Z,98799.80
2018-08-12T15:18:01.692Z,98788.20
2018-08-12T15:20:30.903Z,98792.89
2018-08-12T15:22:59.843Z,98789.09
2018-08-12T15:25:34.081Z,98778.73
2018-08-12T15:28:03.135Z,98779.97
2018-08-12T15:30:31.669Z,98777.09
2018-08-12T15:33:01.035Z,98772.53
2018-08-12T15:35:31.412Z,98767.42
2018-08-12T15:38:00.466Z,98764.17
2018-08-12T15:40:30.373Z,98755.48
2018-08-12T15:43:00.483Z,98758.41
2018-08-12T15:45:28.970Z,98755.59
2018-08-12T15:47:59.160Z,98758.57
2018-08-12T15:50:30.321Z,98761.42
2018-08-12T15:53:03.432Z,98749.11
2018-08-12T15:55:32.694Z,98758.87
2018-08-12T15:58:02.838Z,98712.10
2018-08-12T16:00:32.185Z,98740.67
2018-08-12T16:03:00.603Z,98743.55
2018-08-12T16:05:29.400Z,98722.24
2018-08-12T16:07:58.242Z,98740.83
2018-08-12T16:10:26.995Z,98737.14
2018-08-12T16:12:56.782Z,98743.61
2018-08-12T16:15:25.625Z,98733.15
2018-08-12T16:17:54.450Z,98730.38
2018-08-12T16:20:23.659Z,98722.34
2018-08-12T16:22:52.457Z,98723.98
2018-08-12T16:25:21.820Z,98718.02
2018-08-12T16:27:50.256Z,98717.28
2018-08-12T16:30:19.645Z,98717.34
2018-08-12T16:32:49.224Z,98708.80
2018-08-12T16:35:18.342Z,98708.70
2018-08-12T16:37:47.531Z,98705.98
2018-08-12T16:40:19.294Z,98684.77
2018-08-12T16:42:48.282Z,98699.53
2018-08-12T16:45:21.553Z,98686.20
2018-08-12T16:47:50.086Z,98695.68
2018-08-12T16:50:19.032Z,98646.80
2018-08-12T16:52:47.936Z,98668.14
2018-08-12T16:55:19.109Z,98701.91
2018-08-12T16:57:51.053Z,98687.88
2018-08-12T17:00:22.881Z,98681.30
2018-08-12T17:02:53.915Z,98682.40
2018-08-12T17:05:24.072Z,98679.23
2018-08-12T17:07:54.598Z,98666.13
2018-08-12T17:10:24.639Z,98673.61
2018-08-12T17:12:52.985Z,98674.44
2018-08-12T17:15:22.951Z,98671.72
2018-08-12T17:17:51.312Z,98669.11
2018-08-12T17:20:20.672Z,98653.72
2018-08-12T17:22:50.533Z,98662.53
2018-08-12T17:25:18.847Z,98665.39
2018-08-12T17:27:48.041Z,98669.36
2018-08-12T17:30:18.436Z,98666.41
2018-08-12T17:32:46.752Z,98660.77
2018-08-12T17:35:16.447Z,98658.45
2018-08-12T17:37:45.795Z,98661.56
2018-08-12T17:40:15.136Z,98641.19
2018-08-12T17:42:44.494Z,98652.73
2018-08-12T17:45:14.923Z,98655.66
2018-08-12T17:47:43.667Z,98651.95
2018-08-12T17:50:13.783Z,98654.30
2018-08-12T17:52:43.066Z,98654.12
2018-08-12T17:55:11.422Z,98655.08
2018-08-12T17:57:40.278Z,98647.83
2018-08-12T18:00:14.233Z,98617.75
2018-08-12T18:02:44.998Z,98647.16
2018-08-12T18:05:14.632Z,98644.37
2018-08-12T18:07:43.757Z,98643.69
2018-08-12T18:10:12.485Z,98637.11
2018-08-12T18:12:43.115Z,98637.41
2018-08-12T18:15:12.237Z,98639.29
2018-08-12T18:17:42.293Z,98643.27
2018-08-12T18:20:12.347Z,98639.55
2018-08-12T18:22:45.886Z,98636.95
2018-08-12T18:25:15.061Z,98635.27
2018-08-12T18:27:43.612Z,98573.59
2018-08-12T18:30:15.861Z,98642.05
2018-08-12T18:32:45.903Z,98640.41
2018-08-12T18:35:17.208Z,98635.91
2018-08-12T18:37:46.259Z,98632.84
2018-08-12T18:40:16.593Z,98633.85
2018-08-12T18:42:46.721Z,98634.91
2018-08-12T18:45:16.700Z,98616.39
2018-08-12T18:47:45.567Z,98538.97
2018-08-12T18:50:14.110Z,98666.31
2018-08-12T18:52:45.299Z,98653.59
2018-08-12T18:55:13.481Z,98643.74
2018-08-12T18:57:43.386Z,98650.31
2018-08-12T19:00:14.664Z,98649.78
2018-08-12T19:02:45.022Z,98579.61
2018-08-12T19:05:13.904Z,98657.11
2018-08-12T19:07:42.568Z,98651.37
2018-08-12T19:10:11.627Z,98648.66
2018-08-12T19:12:40.467Z,98650.91
2018-08-12T19:15:10.875Z,98645.06
2018-08-12T19:17:40.182Z,98654.59
2018-08-12T19:20:09.261Z,98650.63
2018-08-12T19:22:38.571Z,98648.69
2018-08-12T19:25:07.478Z,98644.55
2018-08-12T19:27:36.837Z,98644.31
2018-08-12T19:30:07.544Z,98642.76
2018-08-12T19:32:35.860Z,98647.02
2018-08-12T19:35:04.470Z,98643.05
2018-08-12T19:37:33.514Z,98643.70
2018-08-12T19:40:03.712Z,98614.03
2018-08-12T19:42:33.373Z,98641.31
2018-08-12T19:45:01.910Z,98638.52
2018-08-12T19:47:30.278Z,98643.91
2018-08-12T19:50:03.471Z,98591.33
2018-08-12T19:52:32.397Z,98635.20
2018-08-12T19:55:01.146Z,98632.13
2018-08-12T19:57:30.282Z,98601.08
2018-08-12T20:00:00.884Z,98629.96
2018-08-12T20:02:29.813Z,98632.64
2018-08-12T20:04:59.008Z,98627.56
2018-08-12T20:07:29.159Z,98616.23
2018-08-12T20:09:57.455Z,98626.42
2018-08-12T20:12:26.268Z,98619.64
2018-08-12T20:14:55.583Z,98661.41
2018-08-12T20:17:23.879Z,98624.72
2018-08-12T20:19:53.828Z,98618.95
2018-08-12T20:22:22.697Z,98615.01
2018-08-12T20:24:51.215Z,98611.27
2018-08-12T20:27:22.525Z,98503.17
2018-08-12T20:29:51.144Z,98614.25
2018-08-12T20:32:20.945Z,98653.55
2018-08-12T20:34:49.231Z,98614.47
2018-08-12T20:37:17.487Z,98543.19
2018-08-12T20:39:45.841Z,98610.45
2018-08-12T20:42:14.484Z,98614.26
2018-08-12T20:44:42.645Z,98609.17
2018-08-12T20:47:10.894Z,98487.42
2018-08-12T20:49:40.381Z,98610.25
2018-08-12T20:52:08.767Z,98605.62
2018-08-12T20:54:37.220Z,98600.53
2018-08-12T20:57:05.957Z,98600.34
2018-08-12T20:59:34.316Z,98601.95
2018-08-12T21:02:02.610Z,98605.09
2018-08-12T21:04:30.867Z,98586.25
2018-08-12T21:06:59.378Z,98601.23
2018-08-12T21:09:27.595Z,98602.22
2018-08-12T21:11:56.861Z,98596.09
2018-08-12T21:14:25.486Z,98596.55
2018-08-12T21:16:53.603Z,98581.29
2018-08-12T21:19:22.130Z,98600.82
2018-08-12T21:21:51.244Z,98601.50
2018-08-12T21:24:19.929Z,98598.37
2018-08-12T21:26:48.469Z,98594.13
2018-08-12T21:29:16.705Z,98597.36
2018-08-12T21:31:44.907Z,98597.05
2018-08-12T21:34:14.362Z,98517.11
2018-08-12T21:36:42.914Z,98592.22
2018-08-12T21:39:18.128Z,98598.92
2018-08-12T21:41:46.977Z,98582.87
2018-08-12T21:44:15.426Z,98583.16
2018-08-12T21:46:43.554Z,98576.72
2018-08-12T21:49:12.364Z,98577.56
2018-08-12T21:51:40.998Z,98581.44
2018-08-12T21:54:13.193Z,98574.65
2018-08-12T21:56:41.772Z,98578.31
2018-08-12T21:59:15.190Z,98578.41
2018-08-12T22:01:43.574Z,98605.08
2018-08-12T22:04:12.090Z,98534.33
2018-08-12T22:06:40.219Z,98561.70
2018-08-12T22:09:09.742Z,98571.67
2018-08-12T22:11:38.626Z,98578.49
2018-08-12T22:14:06.837Z,98581.70
2018-08-12T22:16:35.184Z,98496.19
2018-08-12T22:19:04.010Z,98580.80
2018-08-12T22:21:32.485Z,98575.31
2018-08-12T22:24:00.807Z,98572.48
2018-08-12T22:26:29.466Z,98573.03
2018-08-12T22:28:57.601Z,98570.16
2018-08-12T22:31:26.432Z,98505.30
2018-08-12T22:33:55.586Z,98565.05
2018-08-12T22:36:23.822Z,98587.83
2018-08-12T22:38:52.382Z,98569.14
2018-08-12T22:41:21.211Z,98559.14
2018-08-12T22:43:50.449Z,98546.88
2018-08-12T22:46:19.451Z,98565.77
2018-08-12T22:48:48.733Z,98585.89
2018-08-12T22:51:18.158Z,98555.15
2018-08-12T22:53:48.243Z,98553.70
2018-08-12T22:56:16.428Z,98553.41
2018-08-12T22:58:46.617Z,98561.47
2018-08-12T23:01:16.597Z,98554.50
2018-08-12T23:03:45.109Z,98551.64
2018-08-12T23:06:13.656Z,98548.91
2018-08-12T23:08:42.828Z,98547.93
2018-08-12T23:11:12.260Z,98546.40
2018-08-12T23:13:41.229Z,98539.52
2018-08-12T23:16:25.195Z,98543.36
2018-08-12T23:18:56.159Z,98543.98
2018-08-12T23:21:27.743Z,98547.44
2018-08-12T23:23:57.059Z,98539.41
2018-08-12T23:26:25.908Z,98531.41
2018-08-12T23:28:57.052Z,98548.05
2018-08-12T23:31:25.935Z,98534.28
2018-08-12T23:33:58.556Z,98541.20
2018-08-12T23:36:27.300Z,98532.45
2018-08-12T23:38:59.334Z,98535.95
2018-08-12T23:41:27.990Z,98530.11
2018-08-12T23:43:56.697Z,98533.14
2018-08-12T23:46:24.989Z,98524.81
2018-08-12T23:48:55.195Z,98523.56
2018-08-12T23:51:23.786Z,98519.80
2018-08-12T23:53:55.494Z,98524.23
2018-08-12T23:56:23.686Z,98537.34
2018-08-12T23:58:53.394Z,98522.19
